Terminal Aerodrome Forecast
Issued by NWS Wilmington, OH

Current Version | Previous Version | Text Only | Print | Product List | Glossary Off
Versions: 1 2 3 4 5 6 7 8 9 10 11 12 13 14 15 16 17 18 19 20 21 22 23 24 25 26 27 28 29 30 31 32 33 34 35 36 37

000
FTUS41 KILN 221600 AAC
TAFDAY
TAF AMD
KDAY 221640Z 2217/2312 01009KT P6SM OVC025
      TEMPO 2217/2218 BKN015
     FM221900 36010KT P6SM BKN030
     FM230000 01004KT P6SM SKC=

USA.gov is the U.S. government's official web portal to all federal, state and local government web resources and services.